Time;durP1;ratioP1;P1;durP2;ratioP2;P2;SDS_P1;SDS_P2;PMS_P1;PMS_P2;Temp;Humidity;BMP_temperature;BMP_pressure;BME280_temperature;BME280_humidity;BME280_pressure;Samples;Min_cycle;Max_cycle;Signal;HPM_P1;HPM_P2
2022/01/06 00:01:35;;;;;;;4.82;1.80;;;;;;;17.09;51.19;99699.03;5038282;28;20116;-89
2022/01/06 00:04:00;;;;;;;3.88;1.50;;;;;;;17.06;51.14;99700.94;5037977;28;20029;-89
2022/01/06 00:06:26;;;;;;;5.00;2.00;;;;;;;17.06;50.96;99701.81;5037342;28;20059;-88
2022/01/06 00:08:54;;;;;;;4.53;1.80;;;;;;;17.04;50.83;99687.81;5037315;28;20032;-88
2022/01/06 00:11:20;;;;;;;4.22;1.83;;;;;;;17.04;50.91;99687.81;5038042;28;20460;-87
2022/01/06 00:16:27;;;;;;;4.97;1.88;;;;;;;17.09;51.03;99706.94;5036221;28;20125;-87
2022/01/06 00:24:13;;;;;;;5.15;1.95;;;;;;;17.07;51.09;99702.66;5038086;28;20036;-87
2022/01/06 00:26:39;;;;;;;5.55;1.90;;;;;;;17.07;51.04;99700.88;5037528;28;20025;-88
2022/01/06 00:29:04;;;;;;;5.50;1.98;;;;;;;17.09;50.86;99700.84;5036531;28;20040;-88
2022/01/06 00:31:31;;;;;;;5.38;1.88;;;;;;;17.06;51.17;99695.66;5053238;28;20383;-87
2022/01/06 00:33:57;;;;;;;4.97;1.83;;;;;;;17.09;50.98;99706.94;5036425;28;20025;-87
2022/01/06 00:36:22;;;;;;;3.67;1.77;;;;;;;17.07;51.06;99703.53;5036224;28;20032;-87
2022/01/06 00:38:48;;;;;;;5.13;2.10;;;;;;;17.10;50.74;99705.19;5037471;28;20110;-88
2022/01/06 00:41:14;;;;;;;4.50;2.00;;;;;;;17.12;50.77;99716.50;5036242;28;20400;-88
2022/01/06 00:43:39;;;;;;;6.85;2.28;;;;;;;17.09;50.72;99703.47;5036722;28;20029;-89
2022/01/06 00:46:05;;;;;;;4.25;1.67;;;;;;;17.09;50.93;99706.94;5037364;28;20337;-87
2022/01/06 00:48:30;;;;;;;4.05;1.80;;;;;;;17.09;50.87;99711.38;5036310;28;20061;-88
2022/01/06 00:50:56;;;;;;;4.50;1.98;;;;;;;17.08;50.73;99710.50;5054297;28;20067;-88
2022/01/06 00:53:21;;;;;;;4.97;1.70;;;;;;;17.06;50.91;99709.72;5039442;28;20098;-88
2022/01/06 00:55:47;;;;;;;4.28;2.10;;;;;;;17.08;50.72;99704.38;5039348;28;20105;-86
2022/01/06 00:58:13;;;;;;;5.25;1.90;;;;;;;17.10;50.68;99708.66;5039365;28;20024;-88
2022/01/06 01:00:39;;;;;;;4.35;1.85;;;;;;;17.10;50.75;99710.47;5056925;28;20020;-88
2022/01/06 01:03:08;;;;;;;4.80;2.10;;;;;;;17.08;50.99;99717.53;5056049;28;20020;-87
2022/01/06 01:05:34;;;;;;;4.43;1.70;;;;;;;17.08;50.73;99714.91;5039399;28;20112;-88
2022/01/06 01:07:59;;;;;;;3.83;1.70;;;;;;;17.08;50.99;99715.78;5039392;28;20470;-88
2022/01/06 01:10:25;;;;;;;5.22;1.90;;;;;;;17.09;50.80;99712.22;5038878;28;20025;-85
2022/01/06 01:12:51;;;;;;;3.95;1.67;;;;;;;17.10;50.69;99713.09;5038869;28;20378;-87
2022/01/06 01:15:20;;;;;;;6.63;1.70;;;;;;;17.10;50.84;99708.66;5038861;28;20163;-86
2022/01/06 01:17:51;;;;;;;3.53;1.67;;;;;;;17.07;50.53;99714.06;5056249;28;20025;-87
2022/01/06 01:20:18;;;;;;;5.13;2.20;;;;;;;17.08;50.69;99715.78;5055587;28;20025;-86
2022/01/06 01:22:44;;;;;;;4.75;1.88;;;;;;;17.07;50.90;99714.06;5038904;28;20025;-86
2022/01/06 01:25:10;;;;;;;4.57;2.03;;;;;;;17.05;50.73;99713.28;5055122;28;20025;-87
2022/01/06 01:27:41;;;;;;;4.50;1.60;;;;;;;17.06;50.75;99717.63;5038560;28;20039;-88
2022/01/06 01:30:14;;;;;;;4.38;1.90;;;;;;;17.07;50.77;99714.06;5055312;28;20028;-88
2022/01/06 01:32:46;;;;;;;5.65;2.05;;;;;;;17.03;50.81;99717.75;5055205;28;20564;-86
2022/01/06 01:35:12;;;;;;;4.75;2.00;;;;;;;17.08;50.70;99715.78;5055298;28;20025;-88
2022/01/06 01:37:38;;;;;;;5.18;1.60;;;;;;;17.07;50.69;99716.72;5055220;28;20108;-88
2022/01/06 01:40:06;;;;;;;5.68;2.00;;;;;;;17.09;50.74;99727.19;5054959;28;20102;-88
2022/01/06 01:42:33;;;;;;;4.82;1.98;;;;;;;17.08;50.77;99726.31;5054904;28;20052;-88
2022/01/06 01:45:01;;;;;;;4.95;1.85;;;;;;;17.07;50.56;99729.91;5038397;28;20025;-89
2022/01/06 01:47:37;;;;;;;4.03;1.88;;;;;;;17.07;50.85;99739.56;5056152;28;20348;-88
2022/01/06 01:50:12;;;;;;;4.88;1.75;;;;;;;17.06;51.09;99732.59;5055983;28;20107;-88
2022/01/06 01:52:47;;;;;;;4.88;2.05;;;;;;;17.07;50.90;99745.72;5054761;28;20028;-89
2022/01/06 01:55:19;;;;;;;4.22;1.70;;;;;;;17.11;50.63;99746.44;5038013;28;20107;-88
2022/01/06 01:57:45;;;;;;;4.65;1.70;;;;;;;17.10;51.03;99750.00;5037978;28;20029;-88
2022/01/06 02:00:12;;;;;;;4.50;2.08;;;;;;;17.09;50.85;99746.50;5054902;28;20114;-87
2022/01/06 02:02:39;;;;;;;5.50;1.95;;;;;;;17.10;51.03;99752.66;5054497;28;20021;-89
2022/01/06 02:05:05;;;;;;;7.10;2.15;;;;;;;17.10;50.74;99756.13;5054392;28;20035;-89
2022/01/06 02:07:33;;;;;;;3.72;1.70;;;;;;;17.11;50.60;99747.31;5054539;28;20032;-88
2022/01/06 02:09:59;;;;;;;5.45;2.03;;;;;;;17.12;50.77;99749.03;5054169;28;20033;-89
2022/01/06 02:12:27;;;;;;;4.13;1.50;;;;;;;17.08;50.88;99754.47;5037760;28;20028;-86
2022/01/06 02:14:53;;;;;;;5.20;1.65;;;;;;;17.11;50.56;99752.59;5055448;28;20037;-86
2022/01/06 02:17:19;;;;;;;6.25;1.98;;;;;;;17.11;50.53;99744.69;5037861;28;20013;-87
2022/01/06 02:19:52;;;;;;;3.97;1.63;;;;;;;17.12;50.55;99759.56;5054230;28;20036;-87
2022/01/06 02:22:18;;;;;;;4.03;1.88;;;;;;;17.13;50.56;99761.28;5055439;28;20466;-85
2022/01/06 02:24:43;;;;;;;5.07;1.88;;;;;;;17.12;50.37;99762.22;5055083;28;20025;-87
2022/01/06 02:27:09;;;;;;;4.28;1.65;;;;;;;17.13;50.56;99761.28;5054868;28;20021;-85
2022/01/06 02:29:34;;;;;;;3.53;1.40;;;;;;;17.14;50.61;99752.44;5037253;28;20033;-87
2022/01/06 02:32:07;;;;;;;4.50;1.65;;;;;;;17.13;50.80;99756.00;5054976;28;20021;-88
2022/01/06 02:34:32;;;;;;;3.20;1.60;;;;;;;17.13;50.64;99750.75;5055459;28;20090;-88
2022/01/06 02:36:58;;;;;;;3.92;1.63;;;;;;;17.14;50.52;99759.53;5054791;28;20414;-87
2022/01/06 02:39:23;;;;;;;4.00;1.50;;;;;;;17.11;50.49;99763.13;5036949;28;20032;-87
2022/01/06 02:41:49;;;;;;;3.88;1.67;;;;;;;17.11;50.68;99762.25;5055021;28;20036;-88
2022/01/06 02:44:15;;;;;;;3.75;1.45;;;;;;;17.14;50.83;99765.63;5037515;28;20328;-88
2022/01/06 02:46:40;;;;;;;3.97;1.65;;;;;;;17.14;50.62;99768.28;5037403;28;20096;-87
2022/01/06 02:49:09;;;;;;;4.25;1.70;;;;;;;17.11;50.70;99765.78;5055109;28;20020;-89
2022/01/06 02:51:35;;;;;;;3.85;1.30;;;;;;;17.09;50.63;99762.31;5037074;28;20024;-88
2022/01/06 02:54:00;;;;;;;4.35;1.70;;;;;;;17.11;50.62;99767.53;5054993;28;20025;-88
2022/01/06 02:56:26;;;;;;;4.75;1.50;;;;;;;17.15;50.53;99763.88;5037424;28;20032;-87
2022/01/06 02:58:52;;;;;;;4.70;1.52;;;;;;;17.12;50.56;99764.84;5054848;28;20462;-87
2022/01/06 03:01:17;;;;;;;3.95;1.50;;;;;;;17.09;50.73;99764.97;5053691;28;20189;-89
2022/01/06 03:03:43;;;;;;;5.22;1.75;;;;;;;17.11;50.61;99760.50;5037184;28;20032;-88
2022/01/06 03:06:08;;;;;;;4.53;1.60;;;;;;;17.07;50.65;99761.53;5037201;28;20029;-88
2022/01/06 03:08:34;;;;;;;4.28;1.80;;;;;;;17.10;50.50;99764.03;5054745;28;20103;-88
2022/01/06 03:11:00;;;;;;;4.53;1.92;;;;;;;17.09;50.47;99764.97;5037055;28;20035;-89
2022/01/06 03:13:26;;;;;;;5.43;1.80;;;;;;;17.12;50.43;99759.56;5053835;28;20021;-87
2022/01/06 03:15:51;;;;;;;3.50;1.30;;;;;;;17.14;50.41;99768.28;5053594;28;20447;-85
2022/01/06 03:18:17;;;;;;;3.58;1.35;;;;;;;17.07;50.70;99766.81;5036977;28;20029;-89
2022/01/06 03:20:42;;;;;;;5.05;1.85;;;;;;;17.10;50.50;99765.81;5053603;28;20103;-87
2022/01/06 03:23:08;;;;;;;4.75;2.33;;;;;;;17.11;50.56;99768.41;5036993;28;20032;-88
2022/01/06 03:25:33;;;;;;;3.15;1.27;;;;;;;17.11;50.69;99773.69;5037124;28;20025;-87
2022/01/06 03:27:59;;;;;;;5.53;1.58;;;;;;;17.10;50.65;99763.19;5054565;28;20447;-89
2022/01/06 03:30:24;;;;;;;3.95;1.40;;;;;;;17.07;50.45;99769.44;5037182;28;20336;-88
2022/01/06 03:32:51;;;;;;;4.20;1.58;;;;;;;17.09;50.51;99764.97;5053287;28;20462;-87
2022/01/06 03:35:20;;;;;;;3.28;1.33;;;;;;;17.11;50.78;99773.69;5054417;28;20033;-88
2022/01/06 03:37:46;;;;;;;3.85;1.48;;;;;;;17.12;50.42;99762.22;5053325;28;20029;-88
2022/01/06 03:40:13;;;;;;;4.05;1.60;;;;;;;17.12;50.58;99771.88;5054491;28;20081;-86
2022/01/06 03:42:39;;;;;;;2.90;1.38;;;;;;;17.14;50.65;99772.69;5053748;28;20025;-87
2022/01/06 03:45:07;;;;;;;3.92;1.50;;;;;;;17.12;50.49;99775.41;5053546;28;20031;-84
2022/01/06 03:47:33;;;;;;;5.05;1.58;;;;;;;17.10;50.49;99766.66;5053340;28;20033;-86
2022/01/06 03:49:58;;;;;;;4.78;1.88;;;;;;;17.11;50.64;99773.69;5054804;28;20158;-87
2022/01/06 03:52:24;;;;;;;2.95;1.15;;;;;;;17.13;50.56;99765.69;5040529;28;20029;-86
2022/01/06 03:54:51;;;;;;;3.58;1.45;;;;;;;17.11;50.79;99763.13;5057179;28;20035;-89
2022/01/06 03:57:17;;;;;;;4.32;1.73;;;;;;;17.10;50.84;99769.31;5040524;28;20044;-87
2022/01/06 03:59:42;;;;;;;4.22;1.40;;;;;;;17.10;50.76;99776.38;5057397;28;20025;-86
2022/01/06 04:02:08;;;;;;;4.05;1.50;;;;;;;17.11;50.91;99781.59;5057997;28;20031;-85
2022/01/06 04:04:34;;;;;;;4.35;1.77;;;;;;;17.11;50.71;99783.34;5040429;28;20021;-86
2022/01/06 04:06:59;;;;;;;4.40;1.60;;;;;;;17.14;50.41;99778.81;5058406;28;20158;-88
2022/01/06 04:09:25;;;;;;;4.88;1.77;;;;;;;17.12;50.89;99785.94;5040330;28;20453;-88
2022/01/06 04:11:50;;;;;;;4.35;1.45;;;;;;;17.12;50.79;99778.03;5057717;28;20450;-88
2022/01/06 04:14:16;;;;;;;4.90;1.73;;;;;;;17.12;50.81;99770.13;5057819;28;20044;-87
2022/01/06 04:16:42;;;;;;;3.05;1.38;;;;;;;17.12;50.52;99759.56;5040021;28;20135;-86
2022/01/06 04:19:07;;;;;;;3.80;1.40;;;;;;;17.12;50.71;99764.84;5040011;28;20049;-87
2022/01/06 04:21:34;;;;;;;3.97;1.40;;;;;;;17.10;50.79;99764.03;5057643;28;20035;-87
2022/01/06 04:23:59;;;;;;;2.72;1.23;;;;;;;17.10;50.85;99769.31;5056469;28;20021;-88
2022/01/06 04:26:25;;;;;;;5.38;1.80;;;;;;;17.09;50.77;99770.22;5057314;28;20020;-88
2022/01/06 04:28:51;;;;;;;4.75;1.80;;;;;;;17.09;50.68;99764.97;5056516;28;20033;-86
2022/01/06 04:31:17;;;;;;;3.33;1.48;;;;;;;17.13;50.77;99782.38;5039485;28;20090;-87
2022/01/06 04:33:43;;;;;;;4.43;1.63;;;;;;;17.11;50.78;99768.41;5057348;28;20459;-86
2022/01/06 04:36:09;;;;;;;4.47;1.50;;;;;;;17.13;50.55;99782.38;5057643;28;20487;-88
2022/01/06 04:38:36;;;;;;;3.40;1.45;;;;;;;17.11;50.72;99781.59;5039587;28;20442;-87
2022/01/06 04:41:03;;;;;;;4.05;1.60;;;;;;;17.11;51.04;99786.88;5056217;28;20036;-87
2022/01/06 04:43:29;;;;;;;2.75;1.20;;;;;;;17.12;50.87;99780.66;5057298;28;20110;-88
2022/01/06 04:45:54;;;;;;;2.85;1.33;;;;;;;17.10;50.80;99787.75;5039235;28;20029;-87
2022/01/06 04:48:20;;;;;;;4.32;1.70;;;;;;;17.11;50.79;99794.78;5057053;28;20033;-88
2022/01/06 04:50:45;;;;;;;3.90;1.60;;;;;;;17.11;50.81;99793.91;5052710;28;20049;-87
2022/01/06 04:53:11;;;;;;;4.30;1.65;;;;;;;17.10;50.71;99793.03;5036350;28;20033;-87
2022/01/06 04:55:37;;;;;;;4.57;1.73;;;;;;;17.13;50.85;99786.78;5036293;28;20036;-88
2022/01/06 04:58:02;;;;;;;3.95;1.75;;;;;;;17.10;50.90;99793.03;5036243;28;20033;-87
2022/01/06 05:00:28;;;;;;;3.65;1.40;;;;;;;17.08;50.84;99791.38;5035903;28;20028;-85
2022/01/06 05:02:53;;;;;;;3.00;1.30;;;;;;;17.10;50.74;99803.59;5036079;28;20025;-87
2022/01/06 05:05:19;;;;;;;3.25;1.40;;;;;;;17.09;50.86;99811.56;5035877;28;20032;-88
2022/01/06 05:07:45;;;;;;;4.65;1.50;;;;;;;17.11;50.95;99818.50;5036613;28;20018;-88
2022/01/06 05:10:10;;;;;;;3.13;1.30;;;;;;;17.13;50.76;99826.34;5052607;28;20030;-88
2022/01/06 05:12:41;;;;;;;4.85;1.45;;;;;;;17.08;50.78;99815.97;5036119;28;20028;-88
2022/01/06 05:15:06;;;;;;;4.20;1.63;;;;;;;17.09;50.75;99817.69;5052365;28;20360;-88
2022/01/06 05:17:32;;;;;;;3.55;1.20;;;;;;;17.09;50.62;99828.22;5052120;28;20029;-87
2022/01/06 05:19:58;;;;;;;4.13;1.70;;;;;;;17.10;50.75;99832.59;5036552;28;20025;-88
2022/01/06 05:22:23;;;;;;;2.63;1.20;;;;;;;17.07;50.81;99824.81;5035569;28;20025;-87
2022/01/06 05:24:49;;;;;;;3.45;1.30;;;;;;;17.11;50.64;99829.06;5035523;28;20056;-88
2022/01/06 05:27:15;;;;;;;4.93;1.40;;;;;;;17.08;50.88;99826.53;5035821;28;20028;-87
2022/01/06 05:29:40;;;;;;;3.00;1.33;;;;;;;17.09;50.66;99838.78;5035755;28;20025;-88
2022/01/06 05:32:06;;;;;;;4.60;1.50;;;;;;;17.08;50.72;99838.84;5035388;28;20033;-87
2022/01/06 05:34:32;;;;;;;3.65;1.25;;;;;;;17.08;50.75;99841.47;5036288;28;20025;-87
2022/01/06 05:36:57;;;;;;;3.60;1.55;;;;;;;17.09;50.71;99853.75;5035163;28;20025;-88
2022/01/06 05:39:23;;;;;;;4.38;1.58;;;;;;;17.05;50.92;99853.03;5036182;28;20022;-87
2022/01/06 05:41:48;;;;;;;5.35;1.90;;;;;;;17.04;50.74;99856.56;5035071;28;20025;-86
2022/01/06 05:44:14;;;;;;;4.72;1.63;;;;;;;17.06;50.94;99859.13;5036021;28;20064;-88
2022/01/06 05:46:49;;;;;;;3.72;1.40;;;;;;;17.09;50.68;99859.88;5037666;28;20075;-82
2022/01/06 05:49:16;;;;;;;4.72;1.67;;;;;;;17.04;51.19;99856.56;5053035;28;20351;-88
2022/01/06 05:51:42;;;;;;;3.88;1.50;;;;;;;17.05;50.59;99863.56;5055903;28;20394;-84
2022/01/06 05:54:08;;;;;;;2.85;1.23;;;;;;;17.03;50.52;99854.84;5055725;28;20036;-81
2022/01/06 05:56:33;;;;;;;3.65;1.30;;;;;;;17.06;50.89;99859.13;5055674;28;20036;-91
2022/01/06 05:58:59;;;;;;;5.85;2.00;;;;;;;17.04;50.78;99860.06;5054621;28;20035;-86
2022/01/06 06:01:25;;;;;;;4.60;1.50;;;;;;;17.03;50.55;99865.38;5037693;28;20032;-88
2022/01/06 06:03:51;;;;;;;5.22;1.33;;;;;;;17.02;50.71;99858.38;5037883;28;20056;-81
2022/01/06 06:06:16;;;;;;;5.68;1.55;;;;;;;17.01;50.81;99861.94;5055309;28;20028;-85
2022/01/06 06:08:42;;;;;;;4.25;1.30;;;;;;;17.04;50.84;99872.38;5054405;28;20029;-85
2022/01/06 06:11:07;;;;;;;5.57;1.63;;;;;;;17.03;50.91;99860.13;5037932;28;20455;-83
2022/01/06 06:13:34;;;;;;;3.92;1.60;;;;;;;17.09;50.65;99870.44;5054519;28;20048;-85
2022/01/06 06:15:59;;;;;;;4.70;1.70;;;;;;;17.01;50.55;99872.47;5054283;28;20631;-87
2022/01/06 06:18:25;;;;;;;3.97;1.50;;;;;;;17.01;50.75;99883.03;5037618;28;20039;-85
2022/01/06 06:20:51;;;;;;;3.95;1.50;;;;;;;17.02;50.78;99876.81;5055560;28;20107;-89
2022/01/06 06:23:16;;;;;;;5.05;2.08;;;;;;;17.00;50.61;99883.94;5038758;28;20058;-93
2022/01/06 06:25:43;;;;;;;3.95;1.80;;;;;;;16.97;50.83;99886.69;5055621;28;20033;-93
2022/01/06 06:28:09;;;;;;;4.82;1.70;;;;;;;17.05;50.54;99892.56;5055615;28;20020;-91
2022/01/06 06:30:35;;;;;;;3.15;1.27;;;;;;;17.00;50.77;99894.47;5038129;28;20029;-90
2022/01/06 06:33:01;;;;;;;3.78;1.65;;;;;;;17.01;50.47;99901.47;5051050;28;20032;-89
2022/01/06 06:35:28;;;;;;;4.25;2.00;;;;;;;17.02;50.73;99895.28;5035942;28;20351;-88
2022/01/06 06:37:53;;;;;;;5.15;1.85;;;;;;;16.99;50.97;99895.38;5037036;28;20024;-87
2022/01/06 06:40:22;;;;;;;3.63;1.40;;;;;;;16.97;50.72;99898.09;5055113;28;20461;-87
2022/01/06 06:42:48;;;;;;;3.45;1.65;;;;;;;17.00;50.61;99891.84;5036465;28;20098;-84
2022/01/06 06:45:15;;;;;;;4.63;2.05;;;;;;;17.03;50.59;99895.25;5037271;28;20044;-89
2022/01/06 06:47:41;;;;;;;3.17;1.63;;;;;;;17.02;50.64;99895.28;5037778;28;20405;-89
2022/01/06 06:50:07;;;;;;;4.10;1.70;;;;;;;17.04;50.80;99890.81;5057377;28;20052;-91
2022/01/06 06:52:33;;;;;;;5.65;2.05;;;;;;;17.08;52.18;99895.06;5035909;28;20071;-83
2022/01/06 06:54:58;;;;;;;6.75;2.40;;;;;;;17.12;52.50;99894.06;5052824;28;20053;-87
2022/01/06 06:57:24;;;;;;;6.20;2.50;;;;;;;17.12;52.39;99901.97;5053059;28;20016;-84
2022/01/06 06:59:50;;;;;;;6.82;2.08;;;;;;;17.21;52.29;99891.97;5035235;28;20021;-85
2022/01/06 07:02:15;;;;;;;7.68;2.50;;;;;;;17.24;52.37;99894.50;5053132;28;20021;-88
2022/01/06 07:04:41;;;;;;;6.40;2.10;;;;;;;17.23;52.39;99895.44;5035584;28;20181;-89
2022/01/06 07:07:07;;;;;;;6.13;2.05;;;;;;;17.28;52.19;99893.44;5053128;28;20332;-87
2022/01/06 07:09:32;;;;;;;10.43;2.50;;;;;;;17.27;52.21;99904.91;5035588;28;20025;-86
2022/01/06 07:11:58;;;;;;;7.40;1.83;;;;;;;17.31;52.32;99895.97;5051996;28;20434;-88
2022/01/06 07:14:23;;;;;;;8.05;2.13;;;;;;;17.35;52.02;99905.50;5036516;28;20021;-88
2022/01/06 07:16:49;;;;;;;6.50;2.35;;;;;;;17.35;51.92;99897.59;5053863;28;20356;-87
2022/01/06 07:19:14;;;;;;;6.22;2.50;;;;;;;17.37;52.19;99903.66;5054542;28;20470;-88
2022/01/06 07:21:40;;;;;;;5.22;2.72;;;;;;;17.41;51.84;99907.91;5054507;28;20059;-89
2022/01/06 07:24:06;;;;;;;4.47;1.80;;;;;;;17.40;51.80;99903.56;5037230;28;20128;-89
2022/01/06 07:26:31;;;;;;;6.05;2.50;;;;;;;17.42;51.78;99909.63;5058131;28;20029;-87
2022/01/06 07:28:57;;;;;;;5.45;2.00;;;;;;;17.38;51.85;99902.72;5041059;28;20530;-88
2022/01/06 07:31:23;;;;;;;4.88;2.22;;;;;;;17.45;51.45;99906.84;5040790;28;20029;-88
2022/01/06 07:33:48;;;;;;;5.80;2.30;;;;;;;17.46;51.50;99899.81;5058450;28;20017;-89
2022/01/06 07:36:14;;;;;;;5.53;2.10;;;;;;;17.49;51.32;99904.09;5057360;28;20029;-89
2022/01/06 07:38:39;;;;;;;4.30;2.08;;;;;;;17.48;51.51;99913.78;5058468;28;20017;-88
2022/01/06 07:41:05;;;;;;;5.93;2.22;;;;;;;17.48;51.22;99913.78;5040710;28;20031;-88
2022/01/06 07:43:31;;;;;;;5.90;2.10;;;;;;;17.50;51.18;99903.16;5040897;28;20136;-88
2022/01/06 07:45:56;;;;;;;7.10;2.35;;;;;;;17.54;51.16;99902.16;5058179;28;20021;-88
2022/01/06 07:48:29;;;;;;;6.30;2.10;;;;;;;17.52;50.74;99909.25;5057146;28;20052;-89
2022/01/06 07:50:55;;;;;;;6.25;2.10;;;;;;;17.50;51.00;99901.41;5057833;28;20568;-89
2022/01/06 07:53:20;;;;;;;6.07;2.20;;;;;;;17.54;50.91;99904.78;5040579;28;20056;-89
2022/01/06 07:55:46;;;;;;;6.47;2.42;;;;;;;17.53;51.08;99918.91;5040529;28;20021;-87
2022/01/06 07:58:12;;;;;;;6.65;2.50;;;;;;;17.53;51.08;99911.81;5056812;28;20067;-86
2022/01/06 08:00:37;;;;;;;6.15;2.08;;;;;;;17.57;50.75;99909.91;5058112;28;20108;-88
2022/01/06 08:03:03;;;;;;;5.03;1.83;;;;;;;17.58;50.95;99914.31;5057812;28;20422;-87
2022/01/06 08:05:29;;;;;;;5.25;1.90;;;;;;;17.62;50.82;99921.16;5040438;28;20028;-88
2022/01/06 08:07:55;;;;;;;6.18;2.15;;;;;;;17.63;50.68;99911.47;5057515;28;20017;-85
2022/01/06 08:10:21;;;;;;;5.78;2.30;;;;;;;17.63;50.82;99924.66;5058774;28;20031;-88
2022/01/06 08:12:47;;;;;;;5.68;2.40;;;;;;;17.63;50.68;99925.50;5056935;28;20063;-88
2022/01/06 08:15:14;;;;;;;4.40;2.15;;;;;;;17.62;50.67;99921.16;5039881;28;20029;-88
2022/01/06 08:17:40;;;;;;;7.20;2.42;;;;;;;17.64;50.53;99919.34;5040083;28;20060;-88
2022/01/06 08:20:08;;;;;;;5.07;2.05;;;;;;;17.65;50.54;99922.81;5056676;28;20481;-86
2022/01/06 08:22:35;;;;;;;5.55;2.30;;;;;;;17.65;50.75;99920.19;5039914;28;20029;-87
2022/01/06 08:25:06;;;;;;;4.97;1.92;;;;;;;17.65;50.49;99920.19;5057477;28;20025;-88
2022/01/06 08:27:31;;;;;;;4.28;1.92;;;;;;;17.64;50.58;99924.63;5039619;28;20439;-89
2022/01/06 08:29:57;;;;;;;4.90;2.15;;;;;;;17.62;50.78;99923.81;5056333;28;20025;-87
2022/01/06 08:32:22;;;;;;;5.72;2.35;;;;;;;17.65;50.55;99931.59;5057292;28;20458;-87
2022/01/06 08:34:48;;;;;;;6.10;2.00;;;;;;;17.67;50.46;99929.75;5039882;28;20049;-87
2022/01/06 08:37:14;;;;;;;6.82;2.17;;;;;;;17.66;50.45;99928.03;5056790;28;20025;-88
2022/01/06 08:39:40;;;;;;;5.90;2.10;;;;;;;17.69;50.31;99932.34;5057857;28;20478;-89
2022/01/06 08:42:05;;;;;;;4.97;2.28;;;;;;;17.67;50.58;99935.03;5057251;28;20443;-88
2022/01/06 08:44:31;;;;;;;5.22;2.40;;;;;;;17.73;50.48;99935.72;5057153;28;20025;-89
2022/01/06 08:46:59;;;;;;;5.13;2.20;;;;;;;17.73;50.30;99928.66;5057430;28;20466;-88
2022/01/06 08:49:25;;;;;;;4.97;1.83;;;;;;;17.72;50.50;99932.19;5055943;28;20108;-89
2022/01/06 08:51:51;;;;;;;4.93;2.08;;;;;;;17.75;50.05;99931.22;5056745;28;20114;-89
2022/01/06 08:54:17;;;;;;;5.40;2.33;;;;;;;17.73;50.22;99938.34;5039724;28;20458;-86
2022/01/06 08:56:42;;;;;;;3.92;1.98;;;;;;;17.75;50.25;99941.78;5039397;28;20017;-89
2022/01/06 08:59:08;;;;;;;4.75;2.08;;;;;;;17.75;50.33;99937.38;5039329;28;20025;-88
2022/01/06 09:01:34;;;;;;;5.38;2.40;;;;;;;17.76;50.35;99946.13;5056060;28;20378;-89
2022/01/06 09:04:00;;;;;;;6.45;2.78;;;;;;;17.76;50.13;99943.50;5057196;28;20065;-89
2022/01/06 09:06:25;;;;;;;4.68;2.47;;;;;;;17.79;50.24;99953.94;5039260;28;20051;-86
2022/01/06 09:08:52;;;;;;;5.50;2.05;;;;;;;17.80;49.94;99951.25;5055780;28;20025;-88
2022/01/06 09:11:18;;;;;;;5.65;2.20;;;;;;;17.78;49.91;99939.88;5055947;28;20025;-86
2022/01/06 09:13:44;;;;;;;6.20;2.30;;;;;;;17.76;50.10;99948.78;5055610;28;20059;-89
2022/01/06 09:16:09;;;;;;;6.35;2.45;;;;;;;17.78;49.57;99952.22;5038935;28;20044;-89
2022/01/06 09:18:36;;;;;;;6.55;2.45;;;;;;;17.78;50.09;99954.88;5056658;28;20017;-87
2022/01/06 09:21:02;;;;;;;5.32;2.30;;;;;;;17.80;50.02;99963.59;5056687;28;20063;-87
2022/01/06 09:23:28;;;;;;;5.45;2.35;;;;;;;17.82;49.71;99959.13;5038945;28;20107;-87
2022/01/06 09:25:54;;;;;;;4.25;1.85;;;;;;;17.82;49.64;99969.69;5056299;28;20454;-88
2022/01/06 09:28:19;;;;;;;4.90;1.85;;;;;;;17.80;49.95;99966.22;5038975;28;20031;-88
2022/01/06 09:30:45;;;;;;;5.00;2.20;;;;;;;17.81;49.82;99962.66;5055224;28;20447;-89
2022/01/06 09:33:11;;;;;;;5.55;2.47;;;;;;;17.84;49.52;99958.09;5038577;28;20021;-87
2022/01/06 09:35:36;;;;;;;6.95;2.38;;;;;;;17.83;49.63;99968.75;5038643;28;20029;-88
2022/01/06 09:38:03;;;;;;;4.38;2.15;;;;;;;17.88;49.63;99969.44;5056768;28;20028;-88
2022/01/06 09:40:29;;;;;;;5.65;2.55;;;;;;;17.85;49.27;99964.25;5056850;28;20040;-88
2022/01/06 09:42:55;;;;;;;5.80;2.15;;;;;;;17.86;49.62;99973.91;5055051;28;20029;-88
2022/01/06 09:45:25;;;;;;;5.93;2.50;;;;;;;17.87;49.36;99975.59;5038328;28;20025;-88
2022/01/06 09:47:52;;;;;;;5.85;2.58;;;;;;;17.92;49.50;99971.00;5056371;28;20098;-88
2022/01/06 09:50:17;;;;;;;4.50;2.13;;;;;;;17.91;49.53;99974.56;5055589;28;20049;-86
2022/01/06 09:52:43;;;;;;;6.10;2.35;;;;;;;17.96;49.05;99983.19;5055653;28;20028;-86
2022/01/06 09:55:09;;;;;;;5.47;2.30;;;;;;;17.91;49.31;99977.22;5038351;28;20078;-88
2022/01/06 09:57:35;;;;;;;5.45;1.98;;;;;;;17.90;49.38;99980.78;5038332;28;20095;-87
2022/01/06 10:00:03;;;;;;;4.70;2.30;;;;;;;17.90;49.23;99980.78;5038243;28;20474;-87
2022/01/06 10:02:36;;;;;;;5.55;2.35;;;;;;;17.90;49.38;99983.41;5055424;28;20098;-88
2022/01/06 10:05:04;;;;;;;6.38;2.20;;;;;;;17.96;49.17;99993.75;5057472;28;20024;-88
2022/01/06 10:07:40;;;;;;;5.35;2.22;;;;;;;17.95;49.33;99978.81;5055681;28;20459;-87
2022/01/06 10:10:12;;;;;;;5.57;2.17;;;;;;;17.92;49.06;99984.22;5054329;28;20064;-87
2022/01/06 10:12:40;;;;;;;7.72;2.45;;;;;;;17.91;49.19;99989.56;5055377;28;20415;-85
2022/01/06 10:15:21;;;;;;;5.97;2.72;;;;;;;17.95;48.82;99992.03;5037771;28;20032;-87
2022/01/06 10:17:47;;;;;;;5.63;2.47;;;;;;;17.92;49.03;99992.13;5055377;28;20467;-86
2022/01/06 10:20:20;;;;;;;5.90;2.35;;;;;;;17.95;49.01;99980.59;5037609;28;20343;-86
2022/01/06 10:22:49;;;;;;;5.82;2.15;;;;;;;17.94;49.04;99990.31;5055411;28;20032;-87
2022/01/06 10:25:17;;;;;;;5.30;2.33;;;;;;;18.00;49.26;99983.06;5037541;28;20087;-87
2022/01/06 10:27:44;;;;;;;5.68;2.38;;;;;;;18.00;48.84;99977.78;5054094;28;20133;-87
2022/01/06 10:30:10;;;;;;;5.35;1.90;;;;;;;18.02;48.77;99979.41;5055441;28;20032;-86
2022/01/06 10:32:38;;;;;;;4.78;2.20;;;;;;;18.04;48.68;99979.38;5054720;28;20075;-86
2022/01/06 10:35:05;;;;;;;4.82;2.10;;;;;;;18.04;48.84;99977.59;5054936;28;20482;-86
2022/01/06 10:37:40;;;;;;;5.70;2.45;;;;;;;18.04;48.90;99974.09;5055098;28;20108;-87
2022/01/06 10:40:10;;;;;;;6.95;2.10;;;;;;;17.99;48.77;99974.28;5054830;28;20024;-86
2022/01/06 10:42:38;;;;;;;6.88;2.30;;;;;;;18.01;48.76;99974.22;5021383;28;20060;-87
2022/01/06 10:45:13;;;;;;;6.65;2.20;;;;;;;18.06;48.80;99972.28;5054859;28;20021;-86
2022/01/06 10:47:48;;;;;;;6.07;2.42;;;;;;;18.04;48.57;99968.81;5054931;28;20013;-88
2022/01/06 10:50:21;;;;;;;4.30;1.90;;;;;;;18.07;48.65;99968.72;5053758;28;20045;-86
2022/01/06 10:53:03;;;;;;;4.32;1.85;;;;;;;18.09;48.63;99969.50;5037433;28;20037;-88
2022/01/06 10:55:41;;;;;;;4.72;1.80;;;;;;;18.07;48.65;99968.72;5053617;28;20506;-87
2022/01/06 10:58:12;;;;;;;6.88;2.38;;;;;;;18.07;48.63;99958.16;5054615;28;20025;-87
2022/01/06 11:00:52;;;;;;;4.53;1.95;;;;;;;18.07;48.80;99964.28;5036599;28;20447;-85
2022/01/06 11:03:23;;;;;;;4.82;2.10;;;;;;;18.11;48.66;99965.00;5054668;28;20028;-87
2022/01/06 11:05:54;;;;;;;5.57;2.20;;;;;;;18.14;48.64;99959.63;5054918;28;20029;-88
2022/01/06 11:08:27;;;;;;;4.38;1.70;;;;;;;18.16;48.19;99970.13;5054806;28;20017;-88
2022/01/06 11:13:35;;;;;;;6.05;2.17;;;;;;;18.19;48.50;99960.28;5054531;28;20032;-87
2022/01/06 11:16:03;;;;;;;6.20;2.13;;;;;;;18.21;48.50;99960.22;5037136;28;20040;-88
2022/01/06 11:18:29;;;;;;;5.57;2.20;;;;;;;18.20;48.09;99958.50;5037122;28;20120;-86
2022/01/06 11:21:07;;;;;;;5.25;1.90;;;;;;;18.19;48.38;99960.28;5054579;28;20463;-87
2022/01/06 11:23:33;;;;;;;4.53;1.83;;;;;;;18.19;48.21;99957.66;5036839;28;20017;-88
2022/01/06 11:26:12;;;;;;;3.78;1.92;;;;;;;18.20;48.49;99951.44;5036994;28;20040;-87
2022/01/06 11:28:42;;;;;;;4.55;2.05;;;;;;;18.22;48.31;99946.09;5037234;28;20025;-87
2022/01/06 11:31:18;;;;;;;4.18;1.98;;;;;;;18.21;48.79;99953.16;5054037;28;20021;-87
2022/01/06 11:33:46;;;;;;;4.50;1.98;;;;;;;18.23;48.67;99948.69;5036650;28;20035;-88
2022/01/06 11:36:29;;;;;;;4.53;1.90;;;;;;;18.27;48.29;99949.41;5054217;28;20494;-86
2022/01/06 11:38:57;;;;;;;5.80;2.05;;;;;;;18.27;48.52;99946.78;5054440;28;20102;-86
2022/01/06 11:41:34;;;;;;;5.53;2.40;;;;;;;18.25;48.32;99946.81;5054423;28;20090;-87
2022/01/06 11:44:02;;;;;;;6.07;2.30;;;;;;;18.27;48.59;99953.81;5036672;28;20064;-88